sensor_id;sensor_type;location;lat;lon;timestamp;P1;durP1;ratioP1;P2;durP2;ratioP2
6775;SDS011;3425;51.376;5.222;2024-03-22T00:01:00;5.78;;;3.45;;
6775;SDS011;3425;51.376;5.222;2024-03-22T00:03:27;7.38;;;4.03;;
6775;SDS011;3425;51.376;5.222;2024-03-22T00:05:54;5.10;;;4.28;;
6775;SDS011;3425;51.376;5.222;2024-03-22T00:08:21;20.13;;;5.38;;
6775;SDS011;3425;51.376;5.222;2024-03-22T00:10:47;2.30;;;2.20;;
6775;SDS011;3425;51.376;5.222;2024-03-22T00:13:14;4.60;;;3.53;;
6775;SDS011;3425;51.376;5.222;2024-03-22T00:15:40;22.23;;;5.28;;
6775;SDS011;3425;51.376;5.222;2024-03-22T00:18:09;3.63;;;2.65;;
6775;SDS011;3425;51.376;5.222;2024-03-22T00:20:35;10.00;;;3.30;;
6775;SDS011;3425;51.376;5.222;2024-03-22T00:23:02;11.10;;;4.43;;
6775;SDS011;3425;51.376;5.222;2024-03-22T00:25:28;7.57;;;5.07;;
6775;SDS011;3425;51.376;5.222;2024-03-22T00:27:55;5.70;;;4.38;;
6775;SDS011;3425;51.376;5.222;2024-03-22T00:30:21;14.07;;;4.93;;
6775;SDS011;3425;51.376;5.222;2024-03-22T00:32:47;3.10;;;2.90;;
6775;SDS011;3425;51.376;5.222;2024-03-22T00:35:13;15.35;;;3.83;;
6775;SDS011;3425;51.376;5.222;2024-03-22T00:37:40;7.40;;;3.05;;
6775;SDS011;3425;51.376;5.222;2024-03-22T00:40:06;3.95;;;3.55;;
6775;SDS011;3425;51.376;5.222;2024-03-22T00:42:32;6.18;;;3.75;;
6775;SDS011;3425;51.376;5.222;2024-03-22T00:44:59;10.13;;;3.90;;
6775;SDS011;3425;51.376;5.222;2024-03-22T00:47:25;3.42;;;3.05;;
6775;SDS011;3425;51.376;5.222;2024-03-22T00:49:51;6.55;;;4.57;;
6775;SDS011;3425;51.376;5.222;2024-03-22T00:52:17;3.83;;;3.63;;
6775;SDS011;3425;51.376;5.222;2024-03-22T00:54:44;8.77;;;2.92;;
6775;SDS011;3425;51.376;5.222;2024-03-22T00:57:10;3.38;;;3.10;;
6775;SDS011;3425;51.376;5.222;2024-03-22T00:59:36;3.88;;;3.40;;
6775;SDS011;3425;51.376;5.222;2024-03-22T01:02:03;8.95;;;2.95;;
6775;SDS011;3425;51.376;5.222;2024-03-22T01:04:29;9.45;;;3.63;;
6775;SDS011;3425;51.376;5.222;2024-03-22T01:06:55;3.45;;;2.75;;
6775;SDS011;3425;51.376;5.222;2024-03-22T01:09:21;12.32;;;4.43;;
6775;SDS011;3425;51.376;5.222;2024-03-22T01:11:48;3.17;;;2.88;;
6775;SDS011;3425;51.376;5.222;2024-03-22T01:14:14;3.72;;;3.13;;
6775;SDS011;3425;51.376;5.222;2024-03-22T01:16:41;3.13;;;2.75;;
6775;SDS011;3425;51.376;5.222;2024-03-22T01:19:07;4.60;;;3.25;;
6775;SDS011;3425;51.376;5.222;2024-03-22T01:21:34;4.10;;;3.10;;
6775;SDS011;3425;51.376;5.222;2024-03-22T01:24:01;3.10;;;2.90;;
6775;SDS011;3425;51.376;5.222;2024-03-22T01:26:27;6.03;;;3.85;;
6775;SDS011;3425;51.376;5.222;2024-03-22T01:28:53;3.58;;;3.28;;
6775;SDS011;3425;51.376;5.222;2024-03-22T01:31:20;5.45;;;4.85;;
6775;SDS011;3425;51.376;5.222;2024-03-22T01:33:46;3.08;;;2.88;;
6775;SDS011;3425;51.376;5.222;2024-03-22T01:36:12;3.70;;;1.80;;
6775;SDS011;3425;51.376;5.222;2024-03-22T01:38:38;2.60;;;2.28;;
6775;SDS011;3425;51.376;5.222;2024-03-22T01:41:05;3.35;;;2.90;;
6775;SDS011;3425;51.376;5.222;2024-03-22T01:43:32;4.50;;;3.05;;
6775;SDS011;3425;51.376;5.222;2024-03-22T01:45:58;4.75;;;3.00;;
6775;SDS011;3425;51.376;5.222;2024-03-22T01:48:25;4.82;;;3.85;;
6775;SDS011;3425;51.376;5.222;2024-03-22T01:50:51;4.45;;;2.97;;
6775;SDS011;3425;51.376;5.222;2024-03-22T01:53:18;11.95;;;5.40;;
6775;SDS011;3425;51.376;5.222;2024-03-22T01:55:44;4.18;;;2.75;;
6775;SDS011;3425;51.376;5.222;2024-03-22T01:58:10;6.63;;;3.13;;
6775;SDS011;3425;51.376;5.222;2024-03-22T02:00:37;6.20;;;3.05;;
6775;SDS011;3425;51.376;5.222;2024-03-22T02:03:04;7.18;;;3.55;;
6775;SDS011;3425;51.376;5.222;2024-03-22T02:05:30;28.33;;;5.18;;
6775;SDS011;3425;51.376;5.222;2024-03-22T02:07:56;8.70;;;3.58;;
6775;SDS011;3425;51.376;5.222;2024-03-22T02:10:22;6.18;;;3.17;;
6775;SDS011;3425;51.376;5.222;2024-03-22T02:12:49;8.70;;;3.90;;
6775;SDS011;3425;51.376;5.222;2024-03-22T02:15:15;4.30;;;2.78;;
6775;SDS011;3425;51.376;5.222;2024-03-22T02:17:41;7.88;;;3.60;;
6775;SDS011;3425;51.376;5.222;2024-03-22T02:20:08;24.08;;;4.63;;
6775;SDS011;3425;51.376;5.222;2024-03-22T02:22:35;3.08;;;2.38;;
6775;SDS011;3425;51.376;5.222;2024-03-22T02:25:01;8.48;;;3.20;;
6775;SDS011;3425;51.376;5.222;2024-03-22T02:27:28;5.07;;;3.50;;
6775;SDS011;3425;51.376;5.222;2024-03-22T02:29:54;5.88;;;3.05;;
6775;SDS011;3425;51.376;5.222;2024-03-22T02:32:20;3.25;;;2.90;;
6775;SDS011;3425;51.376;5.222;2024-03-22T02:34:46;3.22;;;3.03;;
6775;SDS011;3425;51.376;5.222;2024-03-22T02:37:13;7.38;;;3.90;;
6775;SDS011;3425;51.376;5.222;2024-03-22T02:39:39;8.57;;;3.85;;
6775;SDS011;3425;51.376;5.222;2024-03-22T02:42:05;6.88;;;3.97;;
6775;SDS011;3425;51.376;5.222;2024-03-22T02:44:31;15.07;;;3.60;;
6775;SDS011;3425;51.376;5.222;2024-03-22T02:46:58;3.80;;;3.47;;
6775;SDS011;3425;51.376;5.222;2024-03-22T02:49:24;26.17;;;3.33;;
6775;SDS011;3425;51.376;5.222;2024-03-22T02:51:51;5.18;;;3.00;;
6775;SDS011;3425;51.376;5.222;2024-03-22T02:54:17;2.85;;;2.75;;
6775;SDS011;3425;51.376;5.222;2024-03-22T02:56:43;6.35;;;3.90;;
6775;SDS011;3425;51.376;5.222;2024-03-22T02:59:09;3.83;;;3.15;;
6775;SDS011;3425;51.376;5.222;2024-03-22T03:01:36;4.78;;;4.18;;
6775;SDS011;3425;51.376;5.222;2024-03-22T03:04:02;7.93;;;3.10;;
6775;SDS011;3425;51.376;5.222;2024-03-22T03:06:28;8.45;;;5.50;;
6775;SDS011;3425;51.376;5.222;2024-03-22T03:08:54;10.77;;;5.10;;
6775;SDS011;3425;51.376;5.222;2024-03-22T03:11:21;12.15;;;4.38;;
6775;SDS011;3425;51.376;5.222;2024-03-22T03:13:47;11.50;;;4.10;;
6775;SDS011;3425;51.376;5.222;2024-03-22T03:16:13;4.85;;;3.15;;
6775;SDS011;3425;51.376;5.222;2024-03-22T03:18:39;6.03;;;3.78;;
6775;SDS011;3425;51.376;5.222;2024-03-22T03:21:06;6.07;;;3.95;;
6775;SDS011;3425;51.376;5.222;2024-03-22T03:23:33;6.90;;;3.22;;
6775;SDS011;3425;51.376;5.222;2024-03-22T03:25:59;2.95;;;2.85;;
6775;SDS011;3425;51.376;5.222;2024-03-22T03:28:25;5.25;;;3.15;;
6775;SDS011;3425;51.376;5.222;2024-03-22T03:30:52;6.70;;;4.55;;
6775;SDS011;3425;51.376;5.222;2024-03-22T03:33:19;5.88;;;4.43;;
6775;SDS011;3425;51.376;5.222;2024-03-22T03:35:45;4.57;;;2.63;;
6775;SDS011;3425;51.376;5.222;2024-03-22T03:38:12;4.50;;;3.28;;
6775;SDS011;3425;51.376;5.222;2024-03-22T03:40:38;3.85;;;3.65;;
6775;SDS011;3425;51.376;5.222;2024-03-22T03:43:04;3.40;;;2.90;;
6775;SDS011;3425;51.376;5.222;2024-03-22T03:45:31;2.78;;;2.63;;
6775;SDS011;3425;51.376;5.222;2024-03-22T03:47:57;8.32;;;3.70;;
6775;SDS011;3425;51.376;5.222;2024-03-22T03:50:23;3.80;;;3.53;;
6775;SDS011;3425;51.376;5.222;2024-03-22T03:52:50;4.07;;;2.80;;
6775;SDS011;3425;51.376;5.222;2024-03-22T03:55:16;3.97;;;2.50;;
6775;SDS011;3425;51.376;5.222;2024-03-22T03:57:42;5.68;;;3.28;;
6775;SDS011;3425;51.376;5.222;2024-03-22T04:00:08;11.88;;;4.60;;
6775;SDS011;3425;51.376;5.222;2024-03-22T04:02:35;4.57;;;3.78;;
6775;SDS011;3425;51.376;5.222;2024-03-22T04:05:01;4.13;;;3.75;;
6775;SDS011;3425;51.376;5.222;2024-03-22T04:07:27;6.57;;;3.92;;
6775;SDS011;3425;51.376;5.222;2024-03-22T04:09:54;6.95;;;2.97;;
6775;SDS011;3425;51.376;5.222;2024-03-22T04:12:20;21.17;;;4.38;;
6775;SDS011;3425;51.376;5.222;2024-03-22T04:14:46;4.40;;;4.03;;
6775;SDS011;3425;51.376;5.222;2024-03-22T04:17:13;3.53;;;3.22;;
6775;SDS011;3425;51.376;5.222;2024-03-22T04:19:39;3.53;;;2.72;;
6775;SDS011;3425;51.376;5.222;2024-03-22T04:22:05;3.35;;;3.05;;
6775;SDS011;3425;51.376;5.222;2024-03-22T04:24:31;6.90;;;2.92;;
6775;SDS011;3425;51.376;5.222;2024-03-22T04:26:58;5.00;;;3.72;;
6775;SDS011;3425;51.376;5.222;2024-03-22T04:29:24;3.45;;;3.15;;
6775;SDS011;3425;51.376;5.222;2024-03-22T04:31:50;3.15;;;2.95;;
6775;SDS011;3425;51.376;5.222;2024-03-22T04:34:17;5.32;;;4.32;;
6775;SDS011;3425;51.376;5.222;2024-03-22T04:36:44;7.50;;;3.30;;
6775;SDS011;3425;51.376;5.222;2024-03-22T04:39:10;8.07;;;5.00;;
6775;SDS011;3425;51.376;5.222;2024-03-22T04:41:37;12.98;;;4.22;;
6775;SDS011;3425;51.376;5.222;2024-03-22T04:44:03;11.02;;;4.03;;
6775;SDS011;3425;51.376;5.222;2024-03-22T04:46:30;15.13;;;4.45;;
6775;SDS011;3425;51.376;5.222;2024-03-22T04:48:56;5.25;;;3.60;;
6775;SDS011;3425;51.376;5.222;2024-03-22T04:51:22;3.25;;;3.05;;
6775;SDS011;3425;51.376;5.222;2024-03-22T04:53:48;2.03;;;1.98;;
6775;SDS011;3425;51.376;5.222;2024-03-22T04:56:15;3.58;;;3.38;;
6775;SDS011;3425;51.376;5.222;2024-03-22T04:58:41;3.55;;;2.95;;
6775;SDS011;3425;51.376;5.222;2024-03-22T05:01:07;4.82;;;3.75;;
6775;SDS011;3425;51.376;5.222;2024-03-22T05:03:34;4.50;;;3.35;;
6775;SDS011;3425;51.376;5.222;2024-03-22T05:06:00;5.70;;;4.05;;
6775;SDS011;3425;51.376;5.222;2024-03-22T05:08:28;7.45;;;4.70;;
6775;SDS011;3425;51.376;5.222;2024-03-22T05:10:54;9.40;;;5.20;;
6775;SDS011;3425;51.376;5.222;2024-03-22T05:13:21;5.28;;;4.05;;
6775;SDS011;3425;51.376;5.222;2024-03-22T05:15:47;3.63;;;3.42;;
6775;SDS011;3425;51.376;5.222;2024-03-22T05:18:13;4.65;;;3.28;;
6775;SDS011;3425;51.376;5.222;2024-03-22T05:20:39;3.50;;;2.78;;
6775;SDS011;3425;51.376;5.222;2024-03-22T05:23:06;13.77;;;3.60;;
6775;SDS011;3425;51.376;5.222;2024-03-22T05:25:32;7.07;;;4.07;;
6775;SDS011;3425;51.376;5.222;2024-03-22T05:27:58;5.32;;;2.78;;
6775;SDS011;3425;51.376;5.222;2024-03-22T05:30:25;7.65;;;4.28;;
6775;SDS011;3425;51.376;5.222;2024-03-22T05:32:51;4.20;;;3.35;;
6775;SDS011;3425;51.376;5.222;2024-03-22T05:35:17;2.60;;;2.42;;
6775;SDS011;3425;51.376;5.222;2024-03-22T05:37:43;3.38;;;2.85;;
6775;SDS011;3425;51.376;5.222;2024-03-22T05:40:10;2.95;;;2.65;;
6775;SDS011;3425;51.376;5.222;2024-03-22T05:42:36;2.75;;;2.65;;
6775;SDS011;3425;51.376;5.222;2024-03-22T05:45:03;5.55;;;4.63;;
6775;SDS011;3425;51.376;5.222;2024-03-22T05:47:29;10.88;;;3.83;;
6775;SDS011;3425;51.376;5.222;2024-03-22T05:49:56;4.43;;;4.05;;
6775;SDS011;3425;51.376;5.222;2024-03-22T05:52:23;6.07;;;3.30;;
6775;SDS011;3425;51.376;5.222;2024-03-22T05:54:49;3.35;;;3.17;;
6775;SDS011;3425;51.376;5.222;2024-03-22T05:57:15;3.22;;;3.03;;
6775;SDS011;3425;51.376;5.222;2024-03-22T05:59:41;5.05;;;3.15;;
6775;SDS011;3425;51.376;5.222;2024-03-22T06:02:08;11.90;;;3.97;;
6775;SDS011;3425;51.376;5.222;2024-03-22T06:04:34;3.53;;;3.00;;
6775;SDS011;3425;51.376;5.222;2024-03-22T06:07:01;3.00;;;2.90;;
6775;SDS011;3425;51.376;5.222;2024-03-22T06:09:29;3.72;;;3.38;;
6775;SDS011;3425;51.376;5.222;2024-03-22T06:12:12;5.28;;;4.75;;
6775;SDS011;3425;51.376;5.222;2024-03-22T06:14:39;2.97;;;2.88;;
6775;SDS011;3425;51.376;5.222;2024-03-22T06:17:06;2.72;;;2.63;;
6775;SDS011;3425;51.376;5.222;2024-03-22T06:19:32;4.68;;;4.30;;
6775;SDS011;3425;51.376;5.222;2024-03-22T06:21:58;4.28;;;3.80;;
6775;SDS011;3425;51.376;5.222;2024-03-22T06:24:25;2.90;;;2.63;;
6775;SDS011;3425;51.376;5.222;2024-03-22T06:26:51;4.00;;;2.55;;
6775;SDS011;3425;51.376;5.222;2024-03-22T06:29:17;2.75;;;2.65;;
6775;SDS011;3425;51.376;5.222;2024-03-22T06:31:43;2.75;;;2.63;;
6775;SDS011;3425;51.376;5.222;2024-03-22T06:34:10;3.20;;;2.97;;
6775;SDS011;3425;51.376;5.222;2024-03-22T06:36:36;5.45;;;3.20;;
6775;SDS011;3425;51.376;5.222;2024-03-22T06:39:02;2.97;;;2.78;;
6775;SDS011;3425;51.376;5.222;2024-03-22T06:41:34;5.20;;;4.40;;
6775;SDS011;3425;51.376;5.222;2024-03-22T06:44:00;6.68;;;2.65;;
6775;SDS011;3425;51.376;5.222;2024-03-22T06:46:27;2.03;;;1.92;;
6775;SDS011;3425;51.376;5.222;2024-03-22T06:48:53;4.00;;;3.65;;
6775;SDS011;3425;51.376;5.222;2024-03-22T06:51:20;3.53;;;3.22;;
6775;SDS011;3425;51.376;5.222;2024-03-22T06:53:46;16.73;;;3.95;;
6775;SDS011;3425;51.376;5.222;2024-03-22T06:56:13;3.65;;;3.22;;
6775;SDS011;3425;51.376;5.222;2024-03-22T06:58:39;3.70;;;3.00;;
6775;SDS011;3425;51.376;5.222;2024-03-22T07:01:05;7.95;;;4.30;;
6775;SDS011;3425;51.376;5.222;2024-03-22T07:03:32;2.83;;;2.58;;
6775;SDS011;3425;51.376;5.222;2024-03-22T07:05:58;8.85;;;3.63;;
6775;SDS011;3425;51.376;5.222;2024-03-22T07:08:25;3.50;;;3.20;;
6775;SDS011;3425;51.376;5.222;2024-03-22T07:10:52;3.40;;;3.10;;
6775;SDS011;3425;51.376;5.222;2024-03-22T07:13:19;3.22;;;3.03;;
6775;SDS011;3425;51.376;5.222;2024-03-22T07:15:46;1.88;;;1.85;;
6775;SDS011;3425;51.376;5.222;2024-03-22T07:18:13;2.53;;;2.35;;
6775;SDS011;3425;51.376;5.222;2024-03-22T07:20:39;1.90;;;1.90;;
6775;SDS011;3425;51.376;5.222;2024-03-22T07:23:06;12.90;;;4.47;;
6775;SDS011;3425;51.376;5.222;2024-03-22T07:25:32;1.55;;;1.55;;
6775;SDS011;3425;51.376;5.222;2024-03-22T07:27:58;4.93;;;3.58;;
6775;SDS011;3425;51.376;5.222;2024-03-22T07:30:24;1.90;;;1.80;;
6775;SDS011;3425;51.376;5.222;2024-03-22T07:32:51;3.08;;;1.95;;
6775;SDS011;3425;51.376;5.222;2024-03-22T07:35:17;2.13;;;2.00;;
6775;SDS011;3425;51.376;5.222;2024-03-22T07:37:43;21.58;;;3.83;;
6775;SDS011;3425;51.376;5.222;2024-03-22T07:40:10;1.73;;;1.73;;
6775;SDS011;3425;51.376;5.222;2024-03-22T07:42:36;1.85;;;1.75;;
6775;SDS011;3425;51.376;5.222;2024-03-22T07:45:02;4.43;;;2.55;;
6775;SDS011;3425;51.376;5.222;2024-03-22T07:47:30;1.85;;;1.75;;
6775;SDS011;3425;51.376;5.222;2024-03-22T07:49:56;4.13;;;3.42;;
6775;SDS011;3425;51.376;5.222;2024-03-22T07:52:22;2.83;;;2.35;;
6775;SDS011;3425;51.376;5.222;2024-03-22T07:54:49;3.00;;;1.38;;
6775;SDS011;3425;51.376;5.222;2024-03-22T07:57:16;1.20;;;1.10;;
6775;SDS011;3425;51.376;5.222;2024-03-22T07:59:42;1.20;;;1.13;;
6775;SDS011;3425;51.376;5.222;2024-03-22T08:02:09;1.95;;;1.45;;
6775;SDS011;3425;51.376;5.222;2024-03-22T08:04:35;1.67;;;1.35;;
6775;SDS011;3425;51.376;5.222;2024-03-22T08:07:01;0.95;;;0.95;;
6775;SDS011;3425;51.376;5.222;2024-03-22T08:09:28;1.67;;;1.58;;
6775;SDS011;3425;51.376;5.222;2024-03-22T08:11:54;1.42;;;1.30;;
6775;SDS011;3425;51.376;5.222;2024-03-22T08:14:20;3.17;;;1.48;;
6775;SDS011;3425;51.376;5.222;2024-03-22T08:16:47;1.70;;;1.60;;
6775;SDS011;3425;51.376;5.222;2024-03-22T08:19:13;1.10;;;1.10;;
6775;SDS011;3425;51.376;5.222;2024-03-22T08:21:39;1.38;;;0.95;;
6775;SDS011;3425;51.376;5.222;2024-03-22T08:24:05;1.33;;;1.20;;
6775;SDS011;3425;51.376;5.222;2024-03-22T08:26:32;1.55;;;1.23;;
6775;SDS011;3425;51.376;5.222;2024-03-22T08:28:58;1.38;;;1.00;;
6775;SDS011;3425;51.376;5.222;2024-03-22T08:31:24;0.68;;;0.68;;
6775;SDS011;3425;51.376;5.222;2024-03-22T08:33:53;3.00;;;0.70;;
6775;SDS011;3425;51.376;5.222;2024-03-22T08:36:21;0.93;;;0.93;;
6775;SDS011;3425;51.376;5.222;2024-03-22T08:38:49;0.80;;;0.70;;
6775;SDS011;3425;51.376;5.222;2024-03-22T08:41:15;3.50;;;2.20;;
6775;SDS011;3425;51.376;5.222;2024-03-22T08:43:41;1.17;;;1.08;;
6775;SDS011;3425;51.376;5.222;2024-03-22T08:46:07;4.13;;;1.58;;
6775;SDS011;3425;51.376;5.222;2024-03-22T08:48:34;0.60;;;0.60;;
6775;SDS011;3425;51.376;5.222;2024-03-22T08:51:00;3.08;;;2.30;;
6775;SDS011;3425;51.376;5.222;2024-03-22T08:53:26;17.85;;;1.25;;
6775;SDS011;3425;51.376;5.222;2024-03-22T08:55:53;0.85;;;0.85;;
6775;SDS011;3425;51.376;5.222;2024-03-22T08:58:19;2.58;;;1.77;;
6775;SDS011;3425;51.376;5.222;2024-03-22T09:00:45;0.43;;;0.43;;
6775;SDS011;3425;51.376;5.222;2024-03-22T09:03:12;1.17;;;0.85;;
6775;SDS011;3425;51.376;5.222;2024-03-22T09:05:40;0.68;;;0.60;;
6775;SDS011;3425;51.376;5.222;2024-03-22T09:08:06;0.68;;;0.68;;
6775;SDS011;3425;51.376;5.222;2024-03-22T09:10:33;4.03;;;0.95;;
6775;SDS011;3425;51.376;5.222;2024-03-22T09:13:00;0.55;;;0.50;;
6775;SDS011;3425;51.376;5.222;2024-03-22T09:15:26;0.47;;;0.47;;
6775;SDS011;3425;51.376;5.222;2024-03-22T09:17:52;1.75;;;1.15;;
6775;SDS011;3425;51.376;5.222;2024-03-22T09:20:19;0.95;;;0.52;;
6775;SDS011;3425;51.376;5.222;2024-03-22T09:22:45;1.42;;;0.80;;
6775;SDS011;3425;51.376;5.222;2024-03-22T09:25:11;3.97;;;0.95;;
6775;SDS011;3425;51.376;5.222;2024-03-22T09:27:37;5.10;;;1.75;;
6775;SDS011;3425;51.376;5.222;2024-03-22T09:30:04;1.20;;;1.10;;
6775;SDS011;3425;51.376;5.222;2024-03-22T09:32:31;0.40;;;0.40;;
6775;SDS011;3425;51.376;5.222;2024-03-22T09:34:57;5.32;;;0.95;;
6775;SDS011;3425;51.376;5.222;2024-03-22T09:37:23;0.75;;;0.75;;
6775;SDS011;3425;51.376;5.222;2024-03-22T09:39:49;1.35;;;1.08;;
6775;SDS011;3425;51.376;5.222;2024-03-22T09:42:16;0.82;;;0.82;;
6775;SDS011;3425;51.376;5.222;2024-03-22T09:44:48;0.63;;;0.63;;
6775;SDS011;3425;51.376;5.222;2024-03-22T09:47:16;0.82;;;0.80;;
6775;SDS011;3425;51.376;5.222;2024-03-22T09:49:43;0.80;;;0.80;;
6775;SDS011;3425;51.376;5.222;2024-03-22T09:52:14;6.65;;;1.48;;
6775;SDS011;3425;51.376;5.222;2024-03-22T09:54:44;0.70;;;0.65;;
6775;SDS011;3425;51.376;5.222;2024-03-22T09:57:14;0.35;;;0.35;;
6775;SDS011;3425;51.376;5.222;2024-03-22T09:59:44;1.02;;;0.63;;
6775;SDS011;3425;51.376;5.222;2024-03-22T10:02:11;0.98;;;0.57;;
6775;SDS011;3425;51.376;5.222;2024-03-22T10:04:38;1.83;;;1.23;;
6775;SDS011;3425;51.376;5.222;2024-03-22T10:07:04;4.07;;;1.70;;
6775;SDS011;3425;51.376;5.222;2024-03-22T10:09:31;1.20;;;0.50;;
6775;SDS011;3425;51.376;5.222;2024-03-22T10:11:58;0.70;;;0.70;;
6775;SDS011;3425;51.376;5.222;2024-03-22T10:14:25;0.40;;;0.40;;
6775;SDS011;3425;51.376;5.222;2024-03-22T10:16:56;1.02;;;0.93;;
6775;SDS011;3425;51.376;5.222;2024-03-22T10:19:22;0.60;;;0.60;;
6775;SDS011;3425;51.376;5.222;2024-03-22T10:22:02;2.08;;;0.73;;
6775;SDS011;3425;51.376;5.222;2024-03-22T10:24:28;2.90;;;1.35;;
6775;SDS011;3425;51.376;5.222;2024-03-22T10:26:55;1.40;;;1.30;;
6775;SDS011;3425;51.376;5.222;2024-03-22T10:29:21;2.03;;;0.73;;
6775;SDS011;3425;51.376;5.222;2024-03-22T10:31:48;1.35;;;0.93;;
6775;SDS011;3425;51.376;5.222;2024-03-22T10:34:14;1.10;;;0.65;;
6775;SDS011;3425;51.376;5.222;2024-03-22T10:36:41;0.55;;;0.55;;
6775;SDS011;3425;51.376;5.222;2024-03-22T10:39:07;0.47;;;0.47;;
6775;SDS011;3425;51.376;5.222;2024-03-22T10:41:36;1.45;;;1.33;;
6775;SDS011;3425;51.376;5.222;2024-03-22T10:44:02;0.57;;;0.52;;
6775;SDS011;3425;51.376;5.222;2024-03-22T10:46:30;0.73;;;0.73;;
6775;SDS011;3425;51.376;5.222;2024-03-22T10:48:56;0.38;;;0.38;;
6775;SDS011;3425;51.376;5.222;2024-03-22T10:51:23;1.35;;;1.08;;
6775;SDS011;3425;51.376;5.222;2024-03-22T10:53:51;0.65;;;0.65;;
6775;SDS011;3425;51.376;5.222;2024-03-22T10:56:19;0.45;;;0.45;;
6775;SDS011;3425;51.376;5.222;2024-03-22T10:58:47;2.90;;;1.73;;
6775;SDS011;3425;51.376;5.222;2024-03-22T11:01:21;6.07;;;1.30;;
6775;SDS011;3425;51.376;5.222;2024-03-22T11:03:49;1.38;;;0.82;;
6775;SDS011;3425;51.376;5.222;2024-03-22T11:06:19;1.17;;;0.98;;
6775;SDS011;3425;51.376;5.222;2024-03-22T11:08:50;4.05;;;1.08;;
6775;SDS011;3425;51.376;5.222;2024-03-22T11:11:18;2.78;;;1.13;;
6775;SDS011;3425;51.376;5.222;2024-03-22T11:13:47;1.05;;;0.82;;
6775;SDS011;3425;51.376;5.222;2024-03-22T11:16:14;0.63;;;0.63;;
6775;SDS011;3425;51.376;5.222;2024-03-22T11:18:41;1.17;;;1.13;;
6775;SDS011;3425;51.376;5.222;2024-03-22T11:21:07;0.88;;;0.65;;
6775;SDS011;3425;51.376;5.222;2024-03-22T11:23:35;1.25;;;1.25;;
6775;SDS011;3425;51.376;5.222;2024-03-22T11:26:02;1.90;;;1.75;;
6775;SDS011;3425;51.376;5.222;2024-03-22T11:28:31;1.65;;;1.45;;
6775;SDS011;3425;51.376;5.222;2024-03-22T11:30:59;4.03;;;1.17;;
6775;SDS011;3425;51.376;5.222;2024-03-22T11:33:25;2.22;;;1.35;;
6775;SDS011;3425;51.376;5.222;2024-03-22T11:35:54;1.58;;;1.02;;
6775;SDS011;3425;51.376;5.222;2024-03-22T11:38:20;4.50;;;2.65;;
6775;SDS011;3425;51.376;5.222;2024-03-22T11:40:47;1.60;;;1.10;;
6775;SDS011;3425;51.376;5.222;2024-03-22T11:43:13;3.03;;;2.22;;
6775;SDS011;3425;51.376;5.222;2024-03-22T11:45:42;1.48;;;1.38;;
6775;SDS011;3425;51.376;5.222;2024-03-22T11:48:08;2.17;;;1.77;;
6775;SDS011;3425;51.376;5.222;2024-03-22T11:50:36;4.28;;;2.75;;
6775;SDS011;3425;51.376;5.222;2024-03-22T11:53:04;4.10;;;1.55;;
6775;SDS011;3425;51.376;5.222;2024-03-22T11:55:31;2.83;;;1.70;;
6775;SDS011;3425;51.376;5.222;2024-03-22T11:57:58;2.28;;;1.80;;
6775;SDS011;3425;51.376;5.222;2024-03-22T12:00:24;7.55;;;2.83;;
6775;SDS011;3425;51.376;5.222;2024-03-22T12:02:51;3.03;;;2.58;;
6775;SDS011;3425;51.376;5.222;2024-03-22T12:05:18;1.20;;;1.15;;
6775;SDS011;3425;51.376;5.222;2024-03-22T12:07:44;2.28;;;1.67;;
6775;SDS011;3425;51.376;5.222;2024-03-22T12:10:11;1.98;;;1.70;;
6775;SDS011;3425;51.376;5.222;2024-03-22T12:12:37;1.83;;;1.67;;
6775;SDS011;3425;51.376;5.222;2024-03-22T12:15:04;6.40;;;3.42;;
6775;SDS011;3425;51.376;5.222;2024-03-22T12:17:30;1.73;;;0.95;;
6775;SDS011;3425;51.376;5.222;2024-03-22T12:19:56;2.80;;;1.98;;
6775;SDS011;3425;51.376;5.222;2024-03-22T12:22:22;10.23;;;1.95;;
6775;SDS011;3425;51.376;5.222;2024-03-22T12:24:51;6.90;;;2.45;;
6775;SDS011;3425;51.376;5.222;2024-03-22T12:27:17;3.17;;;1.88;;
6775;SDS011;3425;51.376;5.222;2024-03-22T12:29:43;8.38;;;2.22;;
6775;SDS011;3425;51.376;5.222;2024-03-22T12:32:09;4.03;;;2.53;;
6775;SDS011;3425;51.376;5.222;2024-03-22T12:34:35;3.53;;;2.40;;
6775;SDS011;3425;51.376;5.222;2024-03-22T12:37:02;1.88;;;1.38;;
6775;SDS011;3425;51.376;5.222;2024-03-22T12:39:29;3.95;;;1.65;;
6775;SDS011;3425;51.376;5.222;2024-03-22T12:41:57;2.95;;;1.88;;
6775;SDS011;3425;51.376;5.222;2024-03-22T12:44:23;1.55;;;1.45;;
6775;SDS011;3425;51.376;5.222;2024-03-22T12:46:50;3.55;;;2.22;;
6775;SDS011;3425;51.376;5.222;2024-03-22T12:49:16;1.52;;;1.42;;
6775;SDS011;3425;51.376;5.222;2024-03-22T12:51:43;1.50;;;1.13;;
6775;SDS011;3425;51.376;5.222;2024-03-22T12:54:09;4.75;;;1.48;;
6775;SDS011;3425;51.376;5.222;2024-03-22T12:56:35;1.92;;;1.67;;
6775;SDS011;3425;51.376;5.222;2024-03-22T12:59:04;2.17;;;2.00;;
6775;SDS011;3425;51.376;5.222;2024-03-22T13:01:31;1.77;;;1.10;;
6775;SDS011;3425;51.376;5.222;2024-03-22T13:03:57;2.30;;;2.05;;
6775;SDS011;3425;51.376;5.222;2024-03-22T13:06:23;2.35;;;1.60;;
6775;SDS011;3425;51.376;5.222;2024-03-22T13:08:50;2.40;;;1.52;;
6775;SDS011;3425;51.376;5.222;2024-03-22T13:11:16;7.20;;;1.75;;
6775;SDS011;3425;51.376;5.222;2024-03-22T13:13:42;1.92;;;1.52;;
6775;SDS011;3425;51.376;5.222;2024-03-22T13:16:09;2.28;;;2.08;;
6775;SDS011;3425;51.376;5.222;2024-03-22T13:18:40;2.70;;;2.22;;
6775;SDS011;3425;51.376;5.222;2024-03-22T13:21:09;3.00;;;1.17;;
6775;SDS011;3425;51.376;5.222;2024-03-22T13:23:36;2.00;;;1.55;;
6775;SDS011;3425;51.376;5.222;2024-03-22T13:26:03;1.77;;;1.67;;
6775;SDS011;3425;51.376;5.222;2024-03-22T13:28:30;1.95;;;1.85;;
6775;SDS011;3425;51.376;5.222;2024-03-22T13:31:02;3.10;;;1.67;;
6775;SDS011;3425;51.376;5.222;2024-03-22T13:33:31;2.95;;;2.67;;
6775;SDS011;3425;51.376;5.222;2024-03-22T13:35:59;2.78;;;2.58;;
6775;SDS011;3425;51.376;5.222;2024-03-22T13:38:25;2.08;;;1.98;;
6775;SDS011;3425;51.376;5.222;2024-03-22T13:40:55;1.88;;;1.77;;
6775;SDS011;3425;51.376;5.222;2024-03-22T13:43:22;5.20;;;2.67;;
6775;SDS011;3425;51.376;5.222;2024-03-22T13:45:51;2.17;;;2.08;;
6775;SDS011;3425;51.376;5.222;2024-03-22T13:48:21;2.88;;;2.78;;
6775;SDS011;3425;51.376;5.222;2024-03-22T13:50:52;2.97;;;2.75;;
6775;SDS011;3425;51.376;5.222;2024-03-22T13:53:18;4.95;;;2.50;;
6775;SDS011;3425;51.376;5.222;2024-03-22T13:55:47;1.92;;;1.83;;
6775;SDS011;3425;51.376;5.222;2024-03-22T13:58:13;2.00;;;1.90;;
6775;SDS011;3425;51.376;5.222;2024-03-22T14:00:40;2.60;;;2.40;;
6775;SDS011;3425;51.376;5.222;2024-03-22T14:03:06;5.10;;;2.55;;
6775;SDS011;3425;51.376;5.222;2024-03-22T14:05:32;4.05;;;3.65;;
6775;SDS011;3425;51.376;5.222;2024-03-22T14:07:59;3.63;;;2.88;;
6775;SDS011;3425;51.376;5.222;2024-03-22T14:10:25;4.63;;;1.90;;
6775;SDS011;3425;51.376;5.222;2024-03-22T14:12:56;4.22;;;3.92;;
6775;SDS011;3425;51.376;5.222;2024-03-22T14:15:23;3.05;;;2.65;;
6775;SDS011;3425;51.376;5.222;2024-03-22T14:17:57;2.30;;;2.10;;
6775;SDS011;3425;51.376;5.222;2024-03-22T14:20:23;4.45;;;2.85;;
6775;SDS011;3425;51.376;5.222;2024-03-22T14:22:50;2.60;;;2.40;;
6775;SDS011;3425;51.376;5.222;2024-03-22T14:25:16;4.43;;;4.22;;
6775;SDS011;3425;51.376;5.222;2024-03-22T14:27:43;6.50;;;6.07;;
6775;SDS011;3425;51.376;5.222;2024-03-22T14:30:11;8.43;;;7.93;;
6775;SDS011;3425;51.376;5.222;2024-03-22T14:32:40;7.90;;;7.25;;
6775;SDS011;3425;51.376;5.222;2024-03-22T14:35:07;7.47;;;6.97;;
6775;SDS011;3425;51.376;5.222;2024-03-22T14:37:34;6.95;;;6.45;;
6775;SDS011;3425;51.376;5.222;2024-03-22T14:40:01;6.53;;;6.05;;
6775;SDS011;3425;51.376;5.222;2024-03-22T14:42:30;6.10;;;5.65;;
6775;SDS011;3425;51.376;5.222;2024-03-22T14:44:56;14.32;;;10.38;;
6775;SDS011;3425;51.376;5.222;2024-03-22T14:47:23;13.50;;;9.10;;
6775;SDS011;3425;51.376;5.222;2024-03-22T14:49:49;7.18;;;6.47;;
6775;SDS011;3425;51.376;5.222;2024-03-22T14:52:16;4.85;;;4.55;;
6775;SDS011;3425;51.376;5.222;2024-03-22T14:54:43;4.53;;;4.13;;
6775;SDS011;3425;51.376;5.222;2024-03-22T14:57:09;6.60;;;3.78;;
6775;SDS011;3425;51.376;5.222;2024-03-22T14:59:36;3.78;;;3.40;;
6775;SDS011;3425;51.376;5.222;2024-03-22T15:02:02;3.13;;;2.92;;
6775;SDS011;3425;51.376;5.222;2024-03-22T15:04:28;55.65;;;6.63;;
6775;SDS011;3425;51.376;5.222;2024-03-22T15:06:55;5.03;;;3.92;;
6775;SDS011;3425;51.376;5.222;2024-03-22T15:09:22;3.45;;;3.17;;
6775;SDS011;3425;51.376;5.222;2024-03-22T15:11:49;6.22;;;5.90;;